createdAt,value
2017-11-20T00:01:27.740Z,2.20
2017-11-20T00:03:55.355Z,3.00
2017-11-20T00:06:23.147Z,3.20
2017-11-20T00:08:50.926Z,2.50
2017-11-20T00:11:18.433Z,2.60
2017-11-20T00:13:45.951Z,2.20
2017-11-20T00:16:13.483Z,2.23
2017-11-20T00:18:41.363Z,2.40
2017-11-20T00:21:08.963Z,2.63
2017-11-20T00:23:36.495Z,2.33
2017-11-20T00:26:04.458Z,2.60
2017-11-20T00:28:32.415Z,2.93
2017-11-20T00:31:00.118Z,3.00
2017-11-20T00:33:29.887Z,2.70
2017-11-20T00:35:57.854Z,2.80
2017-11-20T00:38:25.735Z,2.27
2017-11-20T00:40:53.689Z,2.93
2017-11-20T00:43:21.605Z,2.77
2017-11-20T00:45:49.521Z,2.60
2017-11-20T00:48:17.591Z,2.80
2017-11-20T00:50:45.609Z,3.03
2017-11-20T00:53:14.345Z,2.60
2017-11-20T00:55:43.235Z,2.67
2017-11-20T00:58:11.203Z,2.70
2017-11-20T01:00:39.148Z,3.30
2017-11-20T01:03:07.037Z,2.63
2017-11-20T01:05:35.004Z,3.10
2017-11-20T01:08:02.872Z,2.50
2017-11-20T01:10:30.631Z,2.80
2017-11-20T01:12:58.395Z,2.70
2017-11-20T01:15:25.933Z,2.80
2017-11-20T01:17:53.435Z,2.20
2017-11-20T01:20:20.954Z,2.57
2017-11-20T01:22:48.872Z,2.80
2017-11-20T01:25:16.398Z,2.57
2017-11-20T01:27:44.855Z,3.00
2017-11-20T01:30:12.381Z,2.73
2017-11-20T01:32:40.678Z,2.70
2017-11-20T01:35:08.175Z,2.07
2017-11-20T01:37:36.647Z,2.50
2017-11-20T01:40:04.167Z,2.93
2017-11-20T01:42:32.422Z,2.60
2017-11-20T01:45:00.706Z,3.23
2017-11-20T01:47:28.996Z,2.10
2017-11-20T01:49:56.506Z,2.97
2017-11-20T01:52:24.030Z,2.53
2017-11-20T01:54:51.527Z,2.60
2017-11-20T01:57:19.565Z,2.03
2017-11-20T01:59:47.088Z,2.33
2017-11-20T02:02:15.375Z,2.10
2017-11-20T02:04:42.885Z,2.80
2017-11-20T02:07:10.414Z,2.73
2017-11-20T02:09:37.923Z,2.20
2017-11-20T02:12:06.214Z,2.50
2017-11-20T02:14:34.474Z,2.17
2017-11-20T02:17:02.734Z,2.47
2017-11-20T02:19:30.255Z,2.40
2017-11-20T02:21:58.386Z,2.43
2017-11-20T02:24:33.245Z,2.40
2017-11-20T02:27:00.747Z,2.47
2017-11-20T02:29:30.754Z,2.20
2017-11-20T02:31:58.258Z,2.80
2017-11-20T02:34:25.768Z,2.67
2017-11-20T02:36:54.067Z,2.20
2017-11-20T02:39:22.336Z,2.17
2017-11-20T02:41:50.628Z,2.10
2017-11-20T02:44:18.139Z,2.60
2017-11-20T02:46:45.668Z,2.33
2017-11-20T02:49:14.114Z,2.50
2017-11-20T02:51:42.388Z,2.30
2017-11-20T02:54:10.674Z,2.13
2017-11-20T02:56:38.194Z,2.67
2017-11-20T02:59:05.716Z,2.00
2017-11-20T03:01:33.218Z,2.07
2017-11-20T03:04:00.740Z,2.13
2017-11-20T03:06:28.240Z,2.73
2017-11-20T03:08:56.532Z,1.80
2017-11-20T03:11:24.936Z,2.50
2017-11-20T03:13:52.438Z,2.13
2017-11-20T03:16:19.967Z,2.27
2017-11-20T03:18:48.411Z,1.83
2017-11-20T03:21:15.935Z,1.93
2017-11-20T03:23:43.446Z,1.83
2017-11-20T03:26:10.969Z,2.67
2017-11-20T03:28:39.242Z,1.93
2017-11-20T03:31:07.532Z,2.10
2017-11-20T03:33:35.030Z,2.40
2017-11-20T03:36:02.530Z,2.37
2017-11-20T03:38:31.047Z,2.27
2017-11-20T03:40:58.543Z,2.33
2017-11-20T03:43:26.070Z,2.03
2017-11-20T03:45:53.557Z,1.97
2017-11-20T03:48:21.077Z,1.83
2017-11-20T03:50:48.575Z,1.80
2017-11-20T03:53:16.101Z,1.83
2017-11-20T03:55:43.611Z,2.10
2017-11-20T03:58:11.874Z,2.47
2017-11-20T04:00:39.406Z,1.83
2017-11-20T04:03:06.913Z,1.73
2017-11-20T04:05:34.439Z,1.50
2017-11-20T04:08:01.945Z,2.33
2017-11-20T04:10:29.465Z,2.00
2017-11-20T04:12:56.970Z,1.80
2017-11-20T04:15:24.466Z,2.23
2017-11-20T04:17:52.018Z,1.83
2017-11-20T04:20:19.523Z,2.37
2017-11-20T04:22:47.046Z,1.60
2017-11-20T04:25:15.307Z,2.20
2017-11-20T04:27:42.834Z,1.90
2017-11-20T04:30:10.330Z,2.17
2017-11-20T04:32:39.339Z,1.73
2017-11-20T04:35:07.626Z,1.90
2017-11-20T04:37:35.127Z,1.73
2017-11-20T04:40:02.650Z,2.33
2017-11-20T04:42:30.156Z,1.90
2017-11-20T04:44:57.690Z,2.07
2017-11-20T04:47:26.134Z,1.67
2017-11-20T04:49:53.628Z,1.80
2017-11-20T04:52:23.094Z,2.20
2017-11-20T04:54:50.587Z,2.17
2017-11-20T04:57:18.105Z,1.43
2017-11-20T04:59:46.547Z,1.90
2017-11-20T05:02:14.074Z,1.60
2017-11-20T05:04:41.567Z,2.23
2017-11-20T05:07:09.091Z,1.70
2017-11-20T05:09:36.588Z,2.07
2017-11-20T05:12:04.877Z,1.90
2017-11-20T05:14:35.097Z,1.80
2017-11-20T05:17:03.368Z,1.97
2017-11-20T05:19:31.670Z,1.97
2017-11-20T05:21:59.176Z,2.10
2017-11-20T05:24:26.707Z,1.87
2017-11-20T05:26:54.230Z,2.00
2017-11-20T05:29:21.750Z,1.60
2017-11-20T05:31:49.254Z,1.90
2017-11-20T05:34:16.759Z,2.00
2017-11-20T05:36:44.287Z,1.73
2017-11-20T05:39:11.779Z,1.63
2017-11-20T05:41:41.251Z,2.17
2017-11-20T05:44:08.743Z,1.73
2017-11-20T05:46:36.259Z,1.70
2017-11-20T05:49:03.756Z,2.00
2017-11-20T05:51:32.059Z,1.50
2017-11-20T05:54:00.322Z,1.80
2017-11-20T05:56:28.593Z,1.40
2017-11-20T05:58:58.860Z,1.80
2017-11-20T06:01:26.355Z,2.10
2017-11-20T06:03:53.879Z,1.70
2017-11-20T06:06:21.385Z,1.87
2017-11-20T06:08:49.670Z,1.70
2017-11-20T06:11:17.942Z,2.10
2017-11-20T06:13:46.206Z,1.77
2017-11-20T06:16:14.497Z,1.60
2017-11-20T06:18:42.006Z,1.57
2017-11-20T06:21:09.532Z,1.90
2017-11-20T06:23:37.036Z,2.00
2017-11-20T06:26:04.535Z,1.73
2017-11-20T06:28:32.060Z,1.73
2017-11-20T06:30:59.558Z,1.80
2017-11-20T06:33:29.026Z,2.10
2017-11-20T06:35:56.632Z,1.90
2017-11-20T06:38:24.159Z,2.00
2017-11-20T06:40:52.426Z,1.60
2017-11-20T06:43:21.046Z,1.60
2017-11-20T06:45:49.937Z,1.90
2017-11-20T06:48:17.510Z,1.63
2017-11-20T06:50:45.259Z,2.00
2017-11-20T06:53:13.431Z,1.77
2017-11-20T06:55:41.603Z,1.87
2017-11-20T06:58:09.878Z,1.90
2017-11-20T07:00:37.847Z,1.70
2017-11-20T07:03:05.915Z,1.90
2017-11-20T07:05:33.883Z,2.47
2017-11-20T07:08:04.002Z,1.90
2017-11-20T07:10:32.994Z,2.03
2017-11-20T07:13:01.354Z,1.87
2017-11-20T07:15:29.339Z,1.73
2017-11-20T07:17:57.306Z,1.70
2017-11-20T07:20:27.865Z,1.60
2017-11-20T07:22:56.319Z,10.53
2017-11-20T07:25:35.960Z,23.33
2017-11-20T07:28:03.560Z,128.43
2017-11-20T07:30:43.972Z,96.60
2017-11-20T07:33:12.588Z,75.30
2017-11-20T07:35:42.063Z,65.87
2017-11-20T07:38:17.547Z,54.73
2017-11-20T07:40:57.449Z,54.47
2017-11-20T07:43:24.953Z,54.60
2017-11-20T07:45:52.491Z,88.97
2017-11-20T07:48:19.999Z,48.30
2017-11-20T07:50:47.510Z,45.83
2017-11-20T07:53:15.046Z,47.07
2017-11-20T07:55:42.552Z,47.37
2017-11-20T07:58:10.846Z,43.17
2017-11-20T08:00:38.353Z,44.00
2017-11-20T08:03:05.886Z,43.20
2017-11-20T08:05:33.402Z,36.07
2017-11-20T08:08:02.632Z,40.90
2017-11-20T08:10:30.168Z,41.40
2017-11-20T08:12:57.699Z,37.30
2017-11-20T08:15:25.222Z,34.90
2017-11-20T08:17:52.727Z,36.27
2017-11-20T08:20:21.035Z,30.43
2017-11-20T08:22:48.534Z,34.30
2017-11-20T08:25:16.978Z,31.27
2017-11-20T08:27:44.512Z,31.10
2017-11-20T08:30:12.027Z,30.17
2017-11-20T08:32:39.560Z,27.43
2017-11-20T08:35:07.079Z,29.77
2017-11-20T08:37:35.375Z,27.20
2017-11-20T08:40:02.886Z,25.97
2017-11-20T08:42:31.217Z,25.20
2017-11-20T08:44:58.727Z,23.10
2017-11-20T08:47:26.995Z,21.30
2017-11-20T08:49:55.306Z,23.47
2017-11-20T08:52:22.819Z,21.50
2017-11-20T08:54:50.349Z,21.50
2017-11-20T08:57:17.859Z,20.70
2017-11-20T08:59:46.156Z,19.87
2017-11-20T09:02:13.665Z,20.53
2017-11-20T09:04:41.190Z,18.50
2017-11-20T09:07:08.694Z,17.93
2017-11-20T09:09:37.010Z,17.40
2017-11-20T09:12:05.475Z,16.90
2017-11-20T09:14:32.978Z,17.80
2017-11-20T09:17:00.519Z,16.57
2017-11-20T09:19:28.047Z,15.10
2017-11-20T09:21:55.547Z,14.00
2017-11-20T09:24:23.075Z,14.67
2017-11-20T09:26:50.578Z,14.43
2017-11-20T09:29:18.846Z,12.37
2017-11-20T09:31:46.376Z,13.57
2017-11-20T09:34:13.906Z,13.30
2017-11-20T09:36:41.442Z,13.00
2017-11-20T09:39:09.715Z,13.10
2017-11-20T09:41:37.991Z,12.47
2017-11-20T09:44:07.247Z,11.10
2017-11-20T09:46:34.745Z,11.77
2017-11-20T09:49:03.047Z,12.03
2017-11-20T09:51:30.560Z,10.40
2017-11-20T09:53:58.094Z,10.90
2017-11-20T09:56:25.596Z,10.00
2017-11-20T09:58:53.898Z,9.70
2017-11-20T10:01:21.415Z,10.20
2017-11-20T10:03:48.920Z,9.90
2017-11-20T10:06:16.446Z,9.33
2017-11-20T10:08:44.723Z,8.80
2017-11-20T10:11:13.014Z,9.97
2017-11-20T10:13:40.527Z,9.00
2017-11-20T10:16:08.035Z,9.77
2017-11-20T10:18:35.563Z,9.07
2017-11-20T10:21:03.847Z,8.70
2017-11-20T10:23:32.150Z,10.10
2017-11-20T10:25:59.664Z,8.20
2017-11-20T10:28:30.651Z,8.17
2017-11-20T10:30:58.159Z,7.10
2017-11-20T10:33:26.444Z,7.60
2017-11-20T10:35:54.754Z,8.17
2017-11-20T10:38:22.256Z,7.60
2017-11-20T10:40:49.786Z,8.10
2017-11-20T10:43:17.295Z,7.63
2017-11-20T10:45:45.586Z,7.50
2017-11-20T10:48:13.087Z,6.83
2017-11-20T10:50:40.618Z,6.93
2017-11-20T10:53:08.117Z,7.07
2017-11-20T10:55:35.617Z,6.87
2017-11-20T10:58:03.129Z,7.37
2017-11-20T11:00:30.665Z,6.00
2017-11-20T11:02:58.199Z,5.50
2017-11-20T11:05:25.699Z,6.27
2017-11-20T11:07:53.226Z,5.30
2017-11-20T11:10:20.743Z,6.53
2017-11-20T11:12:49.030Z,6.40
2017-11-20T11:15:16.531Z,6.40
2017-11-20T11:17:44.995Z,5.80
2017-11-20T11:20:12.522Z,5.00
2017-11-20T11:22:40.030Z,5.83
2017-11-20T11:25:07.571Z,6.10
2017-11-20T11:27:35.074Z,4.63
2017-11-20T11:30:03.376Z,5.73
2017-11-20T11:32:30.883Z,5.57
2017-11-20T11:35:01.170Z,4.80
2017-11-20T11:37:28.674Z,5.70
2017-11-20T11:39:56.180Z,4.60
2017-11-20T11:42:23.705Z,4.50
2017-11-20T11:44:51.979Z,4.77
2017-11-20T11:47:20.271Z,5.00
2017-11-20T11:49:49.743Z,5.00
2017-11-20T11:52:19.210Z,5.87
2017-11-20T11:54:46.709Z,5.47
2017-11-20T11:57:14.990Z,4.67
2017-11-20T11:59:43.264Z,4.20
2017-11-20T12:02:11.532Z,4.27
2017-11-20T12:04:41.799Z,4.73
2017-11-20T12:07:09.296Z,4.30
2017-11-20T12:09:36.819Z,4.40
2017-11-20T12:12:04.347Z,4.50
2017-11-20T12:14:31.879Z,4.13
2017-11-20T12:16:59.381Z,3.97
2017-11-20T12:19:26.891Z,4.20
2017-11-20T12:21:54.415Z,4.87
2017-11-20T12:24:21.923Z,4.40
2017-11-20T12:26:50.211Z,4.37
2017-11-20T12:29:17.710Z,4.10
2017-11-20T12:31:45.240Z,3.80
2017-11-20T12:34:12.744Z,4.50
2017-11-20T12:36:40.272Z,4.57
2017-11-20T12:39:07.783Z,3.20
2017-11-20T12:41:36.079Z,4.37
2017-11-20T12:44:03.583Z,4.00
2017-11-20T12:46:31.078Z,4.27
2017-11-20T12:48:59.363Z,4.27
2017-11-20T12:51:26.898Z,4.63
2017-11-20T12:53:57.138Z,3.33
2017-11-20T12:56:24.647Z,3.97
2017-11-20T12:58:52.172Z,4.07
2017-11-20T13:01:19.672Z,3.77
2017-11-20T13:03:47.183Z,3.30
2017-11-20T13:06:14.722Z,4.40
2017-11-20T13:08:42.231Z,3.87
2017-11-20T13:11:09.774Z,3.57
2017-11-20T13:13:37.266Z,3.23
2017-11-20T13:16:04.789Z,3.30
2017-11-20T13:18:32.290Z,3.47
2017-11-20T13:21:00.554Z,3.80
2017-11-20T13:23:28.072Z,3.50
2017-11-20T13:25:55.572Z,3.30
2017-11-20T13:28:23.091Z,3.67
2017-11-20T13:30:50.602Z,3.43
2017-11-20T13:33:18.891Z,3.53
2017-11-20T13:35:46.398Z,3.80
2017-11-20T13:38:13.897Z,3.30
2017-11-20T13:40:41.419Z,3.00
2017-11-20T13:43:08.924Z,3.20
2017-11-20T13:45:36.463Z,3.43
2017-11-20T13:48:04.744Z,2.63
2017-11-20T13:50:32.271Z,3.47
2017-11-20T13:52:59.766Z,3.87
2017-11-20T13:55:27.271Z,3.40
2017-11-20T13:57:54.791Z,3.10
2017-11-20T14:00:22.290Z,2.87
2017-11-20T14:02:49.817Z,2.87
2017-11-20T14:05:17.325Z,3.40
2017-11-20T14:07:45.647Z,3.23
2017-11-20T14:10:13.143Z,3.20
2017-11-20T14:12:41.586Z,3.20
2017-11-20T14:15:09.106Z,3.20
2017-11-20T14:17:37.372Z,3.00
2017-11-20T14:20:05.663Z,3.60
2017-11-20T14:22:33.167Z,3.27
2017-11-20T14:25:00.698Z,2.83
2017-11-20T14:27:29.146Z,3.00
2017-11-20T14:29:57.763Z,3.20
2017-11-20T14:32:25.290Z,2.83
2017-11-20T14:34:53.554Z,3.50
2017-11-20T14:37:21.841Z,3.10
2017-11-20T14:39:50.109Z,3.17
2017-11-20T14:42:18.394Z,2.70
2017-11-20T14:44:45.894Z,2.90
2017-11-20T14:47:14.348Z,3.40
2017-11-20T14:49:41.871Z,2.87
2017-11-20T14:52:24.718Z,2.37
2017-11-20T14:54:52.238Z,3.03
2017-11-20T14:57:19.743Z,2.40
2017-11-20T14:59:47.262Z,2.30
2017-11-20T15:02:15.574Z,3.00
2017-11-20T15:04:43.111Z,2.70
2017-11-20T15:07:11.599Z,3.23
2017-11-20T15:09:39.102Z,3.23
2017-11-20T15:12:06.645Z,2.60
2017-11-20T15:14:34.155Z,3.17
2017-11-20T15:17:02.676Z,3.27
2017-11-20T15:19:30.190Z,3.10
2017-11-20T15:21:58.475Z,2.73
2017-11-20T15:24:26.002Z,2.67
2017-11-20T15:26:54.306Z,2.40
2017-11-20T15:29:21.813Z,2.83
2017-11-20T15:31:49.311Z,2.50
2017-11-20T15:34:17.603Z,2.37
2017-11-20T15:36:45.102Z,2.80
2017-11-20T15:39:13.579Z,2.57
2017-11-20T15:41:41.094Z,3.33
2017-11-20T15:44:08.643Z,3.37
2017-11-20T15:46:36.139Z,3.13
2017-11-20T15:49:05.371Z,2.30
2017-11-20T15:51:32.895Z,2.50
2017-11-20T15:54:00.391Z,2.57
2017-11-20T15:56:28.674Z,2.40
2017-11-20T15:58:56.951Z,2.67
2017-11-20T16:01:25.218Z,3.03
2017-11-20T16:03:53.510Z,2.37
2017-11-20T16:06:21.003Z,3.17
2017-11-20T16:08:48.526Z,3.20
2017-11-20T16:11:16.024Z,2.90
2017-11-20T16:13:43.551Z,3.17
2017-11-20T16:16:11.055Z,3.23
2017-11-20T16:18:38.547Z,2.63
2017-11-20T16:21:06.831Z,3.07
2017-11-20T16:23:35.252Z,3.00
2017-11-20T16:26:02.779Z,3.30
2017-11-20T16:28:31.239Z,2.63
2017-11-20T16:30:59.531Z,2.40
2017-11-20T16:33:27.034Z,2.67
2017-11-20T16:35:56.514Z,2.70
2017-11-20T16:38:24.019Z,2.60
2017-11-20T16:40:52.286Z,3.03
2017-11-20T16:43:19.806Z,3.07
2017-11-20T16:45:47.307Z,3.37
2017-11-20T16:48:15.599Z,2.77
2017-11-20T16:50:44.071Z,2.70
2017-11-20T16:53:12.360Z,2.87
2017-11-20T16:55:39.871Z,2.90
2017-11-20T16:58:19.478Z,2.80
2017-11-20T17:00:48.926Z,2.80
2017-11-20T17:03:25.380Z,2.63
2017-11-20T17:05:52.881Z,3.03
2017-11-20T17:08:20.403Z,2.83
2017-11-20T17:10:47.902Z,2.63
2017-11-20T17:13:15.447Z,2.70
2017-11-20T17:15:43.744Z,2.20
2017-11-20T17:18:12.194Z,2.60
2017-11-20T17:20:40.482Z,2.43
2017-11-20T17:23:07.990Z,3.00
2017-11-20T17:25:35.531Z,2.97
2017-11-20T17:28:03.035Z,2.60
2017-11-20T17:30:31.296Z,3.10
2017-11-20T17:32:58.814Z,2.63
2017-11-20T17:35:26.311Z,3.00
2017-11-20T17:37:53.831Z,3.03
2017-11-20T17:40:21.330Z,2.97
2017-11-20T17:42:49.006Z,3.03
2017-11-20T17:45:17.274Z,2.80
2017-11-20T17:47:45.551Z,2.37
2017-11-20T17:50:13.845Z,2.40
2017-11-20T17:52:41.358Z,3.07
2017-11-20T17:55:08.878Z,3.07
2017-11-20T17:57:36.371Z,2.60
2017-11-20T18:00:03.891Z,2.53
2017-11-20T18:02:31.392Z,2.43
2017-11-20T18:04:58.914Z,2.57
2017-11-20T18:07:26.418Z,3.07
2017-11-20T18:09:54.679Z,2.80
2017-11-20T18:12:22.198Z,3.20
2017-11-20T18:14:50.636Z,2.60
2017-11-20T18:17:18.927Z,2.50
2017-11-20T18:19:46.432Z,2.80
2017-11-20T18:22:13.960Z,3.13
2017-11-20T18:24:41.476Z,3.50
2017-11-20T18:27:09.760Z,2.63
2017-11-20T18:29:38.026Z,3.00
2017-11-20T18:32:06.310Z,2.43
2017-11-20T18:34:34.595Z,2.70
2017-11-20T18:37:02.094Z,2.90
2017-11-20T18:39:29.614Z,2.40
2017-11-20T18:41:58.095Z,2.43
2017-11-20T18:44:25.614Z,2.80
2017-11-20T18:46:53.878Z,2.70
2017-11-20T18:49:22.315Z,2.80
2017-11-20T18:51:49.839Z,2.47
2017-11-20T18:54:18.464Z,2.87
2017-11-20T18:56:46.432Z,2.70
2017-11-20T18:59:14.296Z,3.00
2017-11-20T19:01:54.143Z,2.60
2017-11-20T19:04:34.953Z,2.70
2017-11-20T19:07:15.473Z,2.93
2017-11-20T19:09:43.337Z,3.00
2017-11-20T19:12:12.330Z,2.90
2017-11-20T19:14:40.401Z,2.97
2017-11-20T19:17:09.289Z,3.43
2017-11-20T19:19:38.384Z,3.73
2017-11-20T19:22:06.351Z,3.47
2017-11-20T19:24:35.342Z,3.17
2017-11-20T19:27:04.233Z,3.43
2017-11-20T19:29:32.157Z,3.43
2017-11-20T19:32:00.987Z,3.07
2017-11-20T19:34:29.978Z,2.83
2017-11-20T19:36:57.617Z,2.60
2017-11-20T19:39:25.142Z,3.67
2017-11-20T19:41:52.662Z,4.43
2017-11-20T19:44:20.164Z,4.20
2017-11-20T19:46:48.459Z,4.20
2017-11-20T19:49:15.968Z,3.73
2017-11-20T19:51:43.491Z,3.50
2017-11-20T19:54:11.019Z,3.40
2017-11-20T19:56:40.602Z,2.90
2017-11-20T19:59:09.247Z,3.87
2017-11-20T20:01:38.048Z,3.63
2017-11-20T20:04:07.480Z,6.00
2017-11-20T20:06:35.926Z,3.53
2017-11-20T20:09:03.829Z,3.63
2017-11-20T20:11:32.120Z,3.23
2017-11-20T20:14:12.395Z,3.27
2017-11-20T20:16:51.639Z,4.20
2017-11-20T20:19:19.134Z,3.63
2017-11-20T20:21:46.657Z,3.47
2017-11-20T20:24:15.130Z,2.87
2017-11-20T20:26:43.673Z,3.83
2017-11-20T20:29:11.190Z,3.30
2017-11-20T20:31:38.716Z,2.87
2017-11-20T20:34:06.218Z,3.50
2017-11-20T20:36:35.713Z,3.07
2017-11-20T20:39:03.218Z,2.67
2017-11-20T20:41:31.488Z,3.10
2017-11-20T20:43:59.780Z,2.90
2017-11-20T20:46:27.312Z,3.17
2017-11-20T20:48:54.809Z,2.90
2017-11-20T20:51:22.371Z,3.00
2017-11-20T20:53:49.927Z,2.90
2017-11-20T20:56:18.395Z,4.23
2017-11-20T20:58:45.919Z,2.80
2017-11-20T21:01:13.439Z,2.70
2017-11-20T21:03:40.958Z,3.00
2017-11-20T21:06:08.478Z,3.00
2017-11-20T21:08:36.926Z,2.80
2017-11-20T21:11:10.055Z,2.70
2017-11-20T21:13:38.322Z,2.60
2017-11-20T21:16:07.796Z,3.33
2017-11-20T21:18:35.300Z,3.00
2017-11-20T21:21:03.596Z,3.27
2017-11-20T21:23:31.095Z,2.73
2017-11-20T21:25:58.627Z,2.67
2017-11-20T21:28:26.128Z,2.87
2017-11-20T21:30:53.636Z,2.20
2017-11-20T21:33:21.166Z,2.90
2017-11-20T21:35:49.435Z,2.73
2017-11-20T21:38:17.739Z,2.73
2017-11-20T21:40:45.242Z,2.80
2017-11-20T21:43:12.788Z,3.30
2017-11-20T21:45:40.286Z,1.97
2017-11-20T21:48:08.550Z,2.83
2017-11-20T21:50:36.836Z,2.47
2017-11-20T21:53:05.098Z,2.13
2017-11-20T21:55:32.614Z,2.40
2017-11-20T21:58:00.119Z,2.60
2017-11-20T22:00:28.418Z,2.60
2017-11-20T22:02:55.999Z,2.73
2017-11-20T22:05:23.493Z,2.00
2017-11-20T22:07:51.318Z,2.40
2017-11-20T22:10:20.105Z,2.23
2017-11-20T22:13:00.682Z,2.27
2017-11-20T22:15:28.534Z,2.80
2017-11-20T22:17:56.080Z,2.43
2017-11-20T22:20:23.587Z,2.40
2017-11-20T22:22:51.118Z,2.60
2017-11-20T22:25:19.994Z,2.53
2017-11-20T22:27:47.859Z,2.90
2017-11-20T22:30:15.666Z,2.60
2017-11-20T22:32:44.049Z,2.40
2017-11-20T22:35:12.359Z,2.40
2017-11-20T22:37:39.859Z,2.00
2017-11-20T22:40:07.414Z,2.50
2017-11-20T22:42:35.360Z,2.40
2017-11-20T22:45:03.125Z,2.30
2017-11-20T22:47:31.089Z,2.83
2017-11-20T22:49:58.954Z,3.00
2017-11-20T22:52:27.742Z,2.07
2017-11-20T22:54:55.308Z,2.63
2017-11-20T22:57:22.876Z,2.20
2017-11-20T22:59:50.381Z,2.70
2017-11-20T23:02:18.674Z,2.40
2017-11-20T23:04:46.179Z,2.33
2017-11-20T23:07:14.650Z,2.87
2017-11-20T23:09:42.175Z,2.33
2017-11-20T23:12:09.674Z,2.50
2017-11-20T23:14:37.182Z,2.73
2017-11-20T23:17:04.703Z,2.50
2017-11-20T23:19:32.208Z,2.90
2017-11-20T23:21:59.759Z,2.10
2017-11-20T23:24:27.264Z,2.10
2017-11-20T23:26:55.726Z,2.13
2017-11-20T23:29:23.258Z,2.13
2017-11-20T23:31:50.754Z,2.10
2017-11-20T23:34:19.234Z,2.40
2017-11-20T23:36:46.730Z,1.77
2017-11-20T23:39:14.233Z,2.00
2017-11-20T23:41:41.766Z,2.10
2017-11-20T23:44:09.267Z,2.07
2017-11-20T23:46:36.795Z,2.47
2017-11-20T23:49:04.307Z,2.43
2017-11-20T23:51:32.600Z,2.23
2017-11-20T23:54:00.115Z,2.40
2017-11-20T23:56:27.610Z,1.83
2017-11-20T23:58:57.111Z,2.07
